Time;durP1;ratioP1;P1;durP2;ratioP2;P2;SDS_P1;SDS_P2;PMS_P1;PMS_P2;Temp;Humidity;BMP_temperature;BMP_pressure;BME280_temperature;BME280_humidity;BME280_pressure;Samples;Min_cycle;Max_cycle;Signal;HPM_P1;HPM_P2
2023/08/30 00:00:55;;;;;;;38.00;29.00;;;;;;;;;;5030498;28;20404;-61
2023/08/30 00:03:21;;;;;;;42.27;30.87;;;;;;;;;;5030664;28;20049;-61
2023/08/30 00:05:47;;;;;;;43.33;31.83;;;;;;;;;;5030050;28;20041;-61
2023/08/30 00:08:18;;;;;;;41.43;29.17;;;;;;;;;;5030451;28;20049;-61
2023/08/30 00:10:44;;;;;;;39.53;27.67;;;;;;;;;;5030560;28;20515;-61
2023/08/30 00:13:10;;;;;;;42.63;28.03;;;;;;;;;;5029039;28;20080;-61
2023/08/30 00:15:36;;;;;;;37.87;27.07;;;;;;;;;;5029455;28;20591;-61
2023/08/30 00:18:02;;;;;;;40.93;27.97;;;;;;;;;;5029894;28;20049;-61
2023/08/30 00:20:27;;;;;;;41.33;28.63;;;;;;;;;;5030213;28;20136;-61
2023/08/30 00:22:53;;;;;;;43.60;30.47;;;;;;;;;;5029829;28;20125;-61
2023/08/30 00:25:19;;;;;;;41.70;27.63;;;;;;;;;;5029858;28;20050;-61
2023/08/30 00:27:45;;;;;;;39.43;25.40;;;;;;;;;;5029917;28;20038;-61
2023/08/30 00:30:12;;;;;;;33.90;25.00;;;;;;;;;;5028705;28;20479;-61
2023/08/30 00:32:38;;;;;;;31.53;23.93;;;;;;;;;;5029835;28;20068;-62
2023/08/30 00:35:04;;;;;;;33.83;24.17;;;;;;;;;;5029795;28;20758;-61
2023/08/30 00:37:30;;;;;;;30.47;23.90;;;;;;;;;;5030213;28;20495;-61
2023/08/30 00:39:56;;;;;;;32.10;23.03;;;;;;;;;;5030182;28;20088;-61
2023/08/30 00:42:21;;;;;;;33.30;22.90;;;;;;;;;;5029304;28;20061;-61
2023/08/30 00:44:47;;;;;;;31.97;23.07;;;;;;;;;;5029325;28;20045;-61
2023/08/30 00:47:14;;;;;;;31.30;23.07;;;;;;;;;;5029352;28;20050;-61
2023/08/30 00:49:40;;;;;;;32.07;23.47;;;;;;;;;;5029736;28;20044;-61
2023/08/30 00:52:07;;;;;;;35.17;22.50;;;;;;;;;;5029601;28;20049;-61
2023/08/30 00:54:34;;;;;;;29.07;22.87;;;;;;;;;;5029099;28;20057;-61
2023/08/30 00:57:04;;;;;;;29.90;22.10;;;;;;;;;;5028475;28;20088;-61
2023/08/30 00:59:30;;;;;;;33.57;21.93;;;;;;;;;;5029010;28;20092;-61
2023/08/30 01:01:56;;;;;;;32.97;21.93;;;;;;;;;;5029229;28;20515;-61
2023/08/30 01:04:23;;;;;;;27.43;20.00;;;;;;;;;;5028782;28;20045;-61
2023/08/30 01:06:49;;;;;;;29.57;20.10;;;;;;;;;;5028540;28;20038;-60
2023/08/30 01:09:15;;;;;;;25.43;19.77;;;;;;;;;;5028909;28;20034;-61
2023/08/30 01:11:49;;;;;;;30.07;21.57;;;;;;;;;;5029218;28;20166;-61
2023/08/30 01:14:21;;;;;;;25.40;18.20;;;;;;;;;;5029083;28;20037;-61
2023/08/30 01:16:47;;;;;;;27.07;19.30;;;;;;;;;;5028722;28;20038;-61
2023/08/30 01:19:32;;;;;;;21.83;16.37;;;;;;;;;;5028365;28;20081;-61
2023/08/30 01:22:14;;;;;;;24.53;17.77;;;;;;;;;;5027305;28;20621;-61
2023/08/30 01:24:58;;;;;;;23.67;16.83;;;;;;;;;;5028481;28;20509;-61
2023/08/30 01:27:25;;;;;;;19.07;15.63;;;;;;;;;;5028491;28;20038;-61
2023/08/30 01:29:54;;;;;;;28.63;16.53;;;;;;;;;;5028410;28;20044;-61
2023/08/30 01:32:22;;;;;;;22.33;16.77;;;;;;;;;;5028758;28;20045;-61
2023/08/30 01:34:49;;;;;;;20.47;16.33;;;;;;;;;;5028205;28;20053;-61
2023/08/30 01:37:15;;;;;;;19.73;15.80;;;;;;;;;;5028719;28;20038;-61
2023/08/30 01:39:42;;;;;;;18.90;15.93;;;;;;;;;;5027899;28;20042;-61
2023/08/30 01:42:08;;;;;;;26.93;18.10;;;;;;;;;;5027949;28;20545;-61
2023/08/30 01:44:35;;;;;;;21.43;17.23;;;;;;;;;;5028392;28;20128;-61
2023/08/30 01:47:02;;;;;;;21.70;16.83;;;;;;;;;;5027774;28;20234;-61
2023/08/30 01:49:32;;;;;;;28.63;17.87;;;;;;;;;;5027983;28;20037;-61
2023/08/30 01:51:58;;;;;;;25.57;16.73;;;;;;;;;;5028406;28;20479;-61
2023/08/30 01:54:24;;;;;;;20.97;16.20;;;;;;;;;;5028379;28;20110;-61
2023/08/30 01:56:50;;;;;;;20.37;16.70;;;;;;;;;;5027761;28;20500;-61
2023/08/30 01:59:16;;;;;;;22.60;17.90;;;;;;;;;;5026976;28;20038;-61
2023/08/30 02:01:42;;;;;;;22.73;16.67;;;;;;;;;;5027519;28;20527;-61
2023/08/30 02:04:08;;;;;;;21.40;17.17;;;;;;;;;;5027320;28;20053;-61
2023/08/30 02:06:39;;;;;;;22.53;16.80;;;;;;;;;;5027288;28;20128;-61
2023/08/30 02:09:10;;;;;;;20.70;17.53;;;;;;;;;;5028157;28;20041;-61
2023/08/30 02:11:37;;;;;;;23.50;18.03;;;;;;;;;;5027547;28;20046;-61
2023/08/30 02:14:06;;;;;;;21.27;18.00;;;;;;;;;;5027593;28;20050;-61
2023/08/30 02:16:33;;;;;;;20.23;15.73;;;;;;;;;;5028112;28;20052;-61
2023/08/30 02:18:59;;;;;;;22.53;16.80;;;;;;;;;;5027918;28;20488;-61
2023/08/30 02:21:25;;;;;;;20.70;16.83;;;;;;;;;;5027551;28;20091;-61
2023/08/30 02:23:51;;;;;;;23.83;17.10;;;;;;;;;;5027938;28;20052;-61
2023/08/30 02:26:19;;;;;;;22.00;17.00;;;;;;;;;;5027839;28;20435;-61
2023/08/30 02:28:45;;;;;;;21.50;16.53;;;;;;;;;;5027953;28;20045;-61
2023/08/30 02:31:11;;;;;;;23.23;16.43;;;;;;;;;;5027845;28;20060;-61
2023/08/30 02:33:40;;;;;;;21.63;16.57;;;;;;;;;;5027884;28;20050;-60
2023/08/30 02:36:06;;;;;;;19.23;15.97;;;;;;;;;;5028775;28;20361;-61
2023/08/30 02:38:32;;;;;;;20.57;15.53;;;;;;;;;;5031200;28;20427;-61
2023/08/30 02:40:58;;;;;;;21.40;15.83;;;;;;;;;;5031569;28;20057;-61
2023/08/30 02:43:24;;;;;;;23.73;15.53;;;;;;;;;;5032019;28;20038;-61
2023/08/30 02:45:52;;;;;;;21.47;15.10;;;;;;;;;;5031515;28;20056;-61
2023/08/30 02:48:18;;;;;;;19.83;15.80;;;;;;;;;;5031249;28;20056;-61
2023/08/30 02:50:44;;;;;;;23.60;15.87;;;;;;;;;;5031445;28;20037;-61
2023/08/30 02:53:10;;;;;;;21.23;16.03;;;;;;;;;;5031668;28;20053;-61
2023/08/30 02:55:36;;;;;;;22.47;17.07;;;;;;;;;;5031369;28;20081;-61
2023/08/30 02:58:02;;;;;;;23.97;16.70;;;;;;;;;;5031724;28;20467;-61
2023/08/30 03:00:28;;;;;;;20.97;17.63;;;;;;;;;;5031679;28;20053;-61
2023/08/30 03:02:54;;;;;;;21.70;17.77;;;;;;;;;;5031190;28;20430;-61
2023/08/30 03:05:20;;;;;;;28.50;18.60;;;;;;;;;;5031402;28;20211;-61
2023/08/30 03:07:46;;;;;;;24.63;18.07;;;;;;;;;;5031355;28;20116;-61
2023/08/30 03:10:12;;;;;;;26.70;18.03;;;;;;;;;;5031219;28;20042;-60
2023/08/30 03:12:38;;;;;;;23.37;17.60;;;;;;;;;;5031278;28;20049;-61
2023/08/30 03:15:04;;;;;;;22.27;17.50;;;;;;;;;;5031169;28;20076;-61
2023/08/30 03:17:30;;;;;;;25.40;17.60;;;;;;;;;;5030875;28;20124;-61
2023/08/30 03:19:56;;;;;;;25.63;17.17;;;;;;;;;;5031079;28;20049;-61
2023/08/30 03:22:22;;;;;;;26.00;17.30;;;;;;;;;;5031353;28;20107;-61
2023/08/30 03:24:49;;;;;;;21.47;15.77;;;;;;;;;;5031024;28;20052;-61
2023/08/30 03:27:16;;;;;;;26.23;17.27;;;;;;;;;;5030703;28;20049;-61
2023/08/30 03:29:42;;;;;;;20.40;17.50;;;;;;;;;;5031026;28;20091;-61
2023/08/30 03:32:08;;;;;;;23.20;17.63;;;;;;;;;;5030842;28;20132;-61
2023/08/30 03:34:34;;;;;;;27.50;17.80;;;;;;;;;;5030850;28;20495;-61
2023/08/30 03:37:00;;;;;;;25.97;18.27;;;;;;;;;;5030761;28;20048;-61
2023/08/30 03:39:26;;;;;;;27.13;19.93;;;;;;;;;;5030648;28;20046;-61
2023/08/30 03:41:52;;;;;;;26.40;18.23;;;;;;;;;;5030209;28;20460;-61
2023/08/30 03:44:18;;;;;;;26.73;17.13;;;;;;;;;;5030512;28;20231;-61
2023/08/30 03:46:44;;;;;;;24.23;18.37;;;;;;;;;;5030598;28;20052;-62
2023/08/30 03:49:10;;;;;;;21.97;16.93;;;;;;;;;;5030639;28;20549;-61
2023/08/30 03:51:36;;;;;;;22.07;17.07;;;;;;;;;;5030614;28;20045;-61
2023/08/30 03:54:02;;;;;;;21.00;16.00;;;;;;;;;;5030038;28;20057;-61
2023/08/30 03:56:28;;;;;;;21.27;15.70;;;;;;;;;;5029779;28;20041;-61
2023/08/30 03:58:54;;;;;;;19.40;15.77;;;;;;;;;;5030518;28;20056;-61
2023/08/30 04:01:20;;;;;;;21.73;16.40;;;;;;;;;;5030384;28;20045;-61
2023/08/30 04:03:45;;;;;;;22.17;15.33;;;;;;;;;;5030436;28;20103;-61
2023/08/30 04:06:11;;;;;;;22.13;16.13;;;;;;;;;;5030246;28;20045;-61
2023/08/30 04:08:37;;;;;;;23.20;15.50;;;;;;;;;;5030358;28;20504;-60
2023/08/30 04:11:03;;;;;;;21.77;14.40;;;;;;;;;;5029798;28;20048;-61
2023/08/30 04:13:29;;;;;;;18.13;15.20;;;;;;;;;;5030166;28;20038;-61
2023/08/30 04:15:58;;;;;;;21.43;16.33;;;;;;;;;;5028478;28;20038;-61
2023/08/30 04:18:24;;;;;;;22.47;16.03;;;;;;;;;;5029782;28;20042;-61
2023/08/30 04:20:50;;;;;;;21.33;16.37;;;;;;;;;;5029818;28;20046;-61
2023/08/30 04:23:16;;;;;;;20.83;16.57;;;;;;;;;;5030349;28;20056;-61
2023/08/30 04:25:42;;;;;;;21.57;16.07;;;;;;;;;;5029970;28;20435;-61
2023/08/30 04:28:08;;;;;;;21.63;16.70;;;;;;;;;;5029491;28;20049;-61
2023/08/30 04:30:36;;;;;;;21.50;15.67;;;;;;;;;;5029756;28;20091;-61
2023/08/30 04:33:02;;;;;;;19.50;15.17;;;;;;;;;;5028681;28;20041;-61
2023/08/30 04:35:29;;;;;;;20.37;16.07;;;;;;;;;;5030184;28;20087;-61
2023/08/30 04:37:55;;;;;;;21.47;15.60;;;;;;;;;;5029340;28;20562;-61
2023/08/30 04:40:21;;;;;;;19.07;14.37;;;;;;;;;;5029431;28;20046;-61
2023/08/30 04:42:47;;;;;;;18.50;15.00;;;;;;;;;;5029314;28;20100;-61
2023/08/30 04:45:13;;;;;;;19.00;15.13;;;;;;;;;;5029644;28;20052;-61
2023/08/30 04:47:39;;;;;;;18.73;14.73;;;;;;;;;;5029417;28;20496;-61
2023/08/30 04:50:05;;;;;;;20.70;14.23;;;;;;;;;;5029477;28;20057;-61
2023/08/30 04:52:31;;;;;;;16.17;12.57;;;;;;;;;;5029626;28;20678;-61
2023/08/30 04:54:57;;;;;;;19.40;12.90;;;;;;;;;;5028696;28;20116;-61
2023/08/30 04:57:23;;;;;;;16.17;12.77;;;;;;;;;;5029548;28;20065;-61
2023/08/30 04:59:49;;;;;;;17.90;12.33;;;;;;;;;;5028903;28;20462;-61
2023/08/30 05:02:15;;;;;;;14.87;12.07;;;;;;;;;;5029364;28;20080;-61
2023/08/30 05:04:41;;;;;;;14.97;11.70;;;;;;;;;;5029231;28;20049;-61
2023/08/30 05:07:07;;;;;;;18.27;11.93;;;;;;;;;;5029276;28;20415;-61
2023/08/30 05:09:34;;;;;;;17.80;12.83;;;;;;;;;;5028626;28;20037;-61
2023/08/30 05:12:00;;;;;;;16.47;12.40;;;;;;;;;;5027809;28;20053;-61
2023/08/30 05:14:27;;;;;;;15.87;12.17;;;;;;;;;;5027760;28;20041;-61
2023/08/30 05:16:53;;;;;;;21.17;12.70;;;;;;;;;;5028589;28;20115;-61
2023/08/30 05:19:19;;;;;;;14.83;10.97;;;;;;;;;;5028458;28;20045;-61
2023/08/30 05:21:45;;;;;;;15.03;11.33;;;;;;;;;;5028558;28;20483;-61
2023/08/30 05:24:11;;;;;;;17.43;12.17;;;;;;;;;;5028631;28;20045;-62
2023/08/30 05:26:37;;;;;;;16.53;12.30;;;;;;;;;;5028679;28;20046;-61
2023/08/30 05:29:03;;;;;;;14.60;11.97;;;;;;;;;;5027497;28;20049;-62
2023/08/30 05:31:29;;;;;;;16.17;11.57;;;;;;;;;;5027643;28;20098;-61
2023/08/30 05:33:55;;;;;;;15.20;11.97;;;;;;;;;;5028597;28;20437;-61
2023/08/30 05:36:21;;;;;;;16.10;11.60;;;;;;;;;;5028402;28;20179;-61
2023/08/30 05:38:47;;;;;;;17.47;11.57;;;;;;;;;;5028199;28;20057;-61
2023/08/30 05:41:13;;;;;;;16.40;11.67;;;;;;;;;;5027913;28;20053;-61
2023/08/30 05:43:39;;;;;;;15.63;12.93;;;;;;;;;;5028318;28;20057;-61
2023/08/30 05:46:08;;;;;;;17.40;12.60;;;;;;;;;;5027916;28;20037;-61
2023/08/30 05:48:34;;;;;;;18.27;11.60;;;;;;;;;;5028222;28;20128;-61
2023/08/30 05:51:00;;;;;;;16.97;11.37;;;;;;;;;;5028313;28;20132;-61
2023/08/30 05:53:26;;;;;;;15.47;11.53;;;;;;;;;;5027986;28;20120;-61
2023/08/30 05:55:52;;;;;;;19.50;11.87;;;;;;;;;;5028093;28;20042;-61
2023/08/30 05:58:18;;;;;;;13.73;10.40;;;;;;;;;;5028243;28;20050;-61
2023/08/30 06:00:44;;;;;;;15.83;11.20;;;;;;;;;;5027525;28;20042;-61
2023/08/30 06:03:10;;;;;;;16.23;12.27;;;;;;;;;;5028063;28;20053;-61
2023/08/30 06:05:36;;;;;;;14.93;11.93;;;;;;;;;;5028494;28;20045;-61
2023/08/30 06:08:02;;;;;;;17.17;11.40;;;;;;;;;;5028003;28;20050;-61
2023/08/30 06:10:28;;;;;;;15.07;11.17;;;;;;;;;;5027300;28;20045;-61
2023/08/30 06:12:54;;;;;;;14.80;10.90;;;;;;;;;;5027292;28;20052;-61
2023/08/30 06:15:20;;;;;;;15.73;11.10;;;;;;;;;;5027835;28;20598;-61
2023/08/30 06:17:46;;;;;;;14.53;11.47;;;;;;;;;;5027874;28;20136;-62
2023/08/30 06:20:13;;;;;;;13.17;11.00;;;;;;;;;;5027967;28;20045;-61
2023/08/30 06:22:41;;;;;;;16.03;11.43;;;;;;;;;;5028088;28;20526;-61
2023/08/30 06:25:07;;;;;;;14.70;11.10;;;;;;;;;;5027218;28;20458;-61
2023/08/30 06:27:33;;;;;;;14.93;11.77;;;;;;;;;;5027832;28;20045;-61
2023/08/30 06:29:59;;;;;;;13.97;11.10;;;;;;;;;;5027405;28;20038;-61
2023/08/30 06:32:26;;;;;;;15.50;11.47;;;;;;;;;;5027818;28;20045;-61
2023/08/30 06:34:51;;;;;;;16.40;12.10;;;;;;;;;;5027422;28;20049;-61
2023/08/30 06:37:17;;;;;;;15.77;11.83;;;;;;;;;;5026993;28;20042;-61
2023/08/30 06:39:43;;;;;;;18.43;11.43;;;;;;;;;;5027718;28;20099;-61
2023/08/30 06:42:09;;;;;;;14.87;10.53;;;;;;;;;;5027470;28;20096;-61
2023/08/30 06:44:35;;;;;;;18.13;11.63;;;;;;;;;;5027623;28;20042;-61
2023/08/30 06:47:01;;;;;;;14.50;11.33;;;;;;;;;;5027642;28;20486;-61
2023/08/30 06:49:27;;;;;;;13.10;10.27;;;;;;;;;;5027631;28;20451;-61
2023/08/30 06:51:53;;;;;;;16.27;11.50;;;;;;;;;;5027044;28;20072;-61
2023/08/30 06:54:19;;;;;;;15.30;11.93;;;;;;;;;;5027418;28;20056;-62
2023/08/30 06:56:58;;;;;;;12.70;11.37;;;;;;;;;;5027602;28;20338;-61
2023/08/30 06:59:24;;;;;;;16.67;11.63;;;;;;;;;;5027520;28;20103;-61
2023/08/30 07:01:50;;;;;;;15.77;11.40;;;;;;;;;;5026947;28;20053;-61
2023/08/30 07:04:16;;;;;;;13.47;10.77;;;;;;;;;;5027450;28;20041;-61
2023/08/30 07:06:42;;;;;;;14.27;11.33;;;;;;;;;;5026265;28;20073;-61
2023/08/30 07:09:08;;;;;;;14.17;11.73;;;;;;;;;;5027563;28;20041;-61
2023/08/30 07:11:34;;;;;;;15.60;11.70;;;;;;;;;;5027931;28;20041;-61
2023/08/30 07:14:00;;;;;;;16.57;11.93;;;;;;;;;;5027398;28;20507;-61
2023/08/30 07:16:27;;;;;;;17.20;12.63;;;;;;;;;;5027711;28;20038;-61
2023/08/30 07:18:53;;;;;;;16.00;11.60;;;;;;;;;;5027877;28;20411;-62
2023/08/30 07:21:19;;;;;;;15.03;11.67;;;;;;;;;;5028018;28;20056;-61
2023/08/30 07:23:45;;;;;;;13.27;11.33;;;;;;;;;;5030230;28;20415;-61
2023/08/30 07:26:10;;;;;;;16.43;10.80;;;;;;;;;;5018824;28;20088;-61
2023/08/30 07:28:36;;;;;;;18.23;11.03;;;;;;;;;;5011598;28;20050;-61
2023/08/30 07:31:03;;;;;;;16.57;10.80;;;;;;;;;;5011320;28;20133;-61
2023/08/30 07:33:29;;;;;;;17.77;11.63;;;;;;;;;;5011463;28;20045;-62
2023/08/30 07:35:55;;;;;;;15.00;11.90;;;;;;;;;;5020389;28;20381;-62
2023/08/30 07:38:21;;;;;;;16.33;11.67;;;;;;;;;;5031132;28;20053;-62
2023/08/30 07:40:47;;;;;;;16.17;11.50;;;;;;;;;;5030758;28;20052;-62
2023/08/30 07:43:13;;;;;;;15.53;11.10;;;;;;;;;;5030899;28;20491;-62
2023/08/30 07:45:39;;;;;;;15.77;11.50;;;;;;;;;;5029870;28;20045;-62
2023/08/30 07:48:05;;;;;;;14.20;11.03;;;;;;;;;;5029625;28;20049;-61
2023/08/30 07:50:31;;;;;;;13.03;10.63;;;;;;;;;;5029616;28;20041;-61
2023/08/30 07:52:57;;;;;;;19.00;11.23;;;;;;;;;;5030792;28;20053;-61
2023/08/30 07:55:23;;;;;;;14.37;10.70;;;;;;;;;;5030511;28;20053;-61
2023/08/30 07:57:49;;;;;;;14.23;10.43;;;;;;;;;;5030255;28;20049;-61
2023/08/30 08:00:16;;;;;;;14.67;10.60;;;;;;;;;;5030956;28;20127;-62
2023/08/30 08:02:42;;;;;;;18.10;12.40;;;;;;;;;;5030583;28;20092;-62
2023/08/30 08:05:08;;;;;;;14.20;11.50;;;;;;;;;;5030356;28;20052;-62
2023/08/30 08:07:34;;;;;;;14.90;10.30;;;;;;;;;;5022374;28;20511;-61
2023/08/30 08:10:00;;;;;;;14.50;11.03;;;;;;;;;;5025159;28;20420;-62
2023/08/30 08:12:27;;;;;;;13.90;10.97;;;;;;;;;;5030357;28;20068;-62
2023/08/30 08:14:53;;;;;;;12.83;10.67;;;;;;;;;;5030588;28;20056;-61
2023/08/30 08:17:19;;;;;;;13.00;10.50;;;;;;;;;;5030728;28;20424;-62
2023/08/30 08:19:45;;;;;;;14.07;11.17;;;;;;;;;;5030001;28;20502;-61
2023/08/30 08:22:11;;;;;;;16.10;10.73;;;;;;;;;;5030481;28;20060;-61
2023/08/30 08:24:37;;;;;;;15.93;11.07;;;;;;;;;;5029762;28;20049;-61
2023/08/30 08:27:05;;;;;;;14.47;11.50;;;;;;;;;;5030351;28;20496;-61
2023/08/30 08:29:31;;;;;;;14.03;10.67;;;;;;;;;;5030133;28;20048;-61
2023/08/30 08:31:57;;;;;;;14.97;12.83;;;;;;;;;;5030000;28;20046;-61
2023/08/30 08:34:23;;;;;;;16.03;13.03;;;;;;;;;;5029223;28;20054;-61
2023/08/30 08:36:49;;;;;;;19.77;14.20;;;;;;;;;;5029413;28;20180;-61
2023/08/30 08:39:15;;;;;;;17.60;13.87;;;;;;;;;;5029553;28;20534;-61
2023/08/30 08:41:42;;;;;;;20.87;15.40;;;;;;;;;;5029708;28;20065;-61
2023/08/30 08:44:08;;;;;;;22.83;14.97;;;;;;;;;;5029828;28;20052;-61
2023/08/30 08:46:35;;;;;;;22.97;16.47;;;;;;;;;;5029826;28;20049;-61
2023/08/30 08:49:07;;;;;;;23.87;17.30;;;;;;;;;;5029594;28;20052;-60
2023/08/30 08:51:34;;;;;;;25.17;18.23;;;;;;;;;;5029286;28;20054;-60
2023/08/30 08:54:03;;;;;;;23.83;18.00;;;;;;;;;;5029549;28;20052;-61
2023/08/30 08:56:29;;;;;;;27.33;17.73;;;;;;;;;;5029721;28;20092;-61
2023/08/30 08:58:55;;;;;;;28.80;17.43;;;;;;;;;;5028909;28;20034;-61
2023/08/30 09:01:21;;;;;;;32.47;19.03;;;;;;;;;;5029662;28;20521;-62
2023/08/30 09:03:47;;;;;;;34.83;19.90;;;;;;;;;;5029540;28;20087;-62
2023/08/30 09:06:15;;;;;;;29.40;19.47;;;;;;;;;;5029608;28;20045;-62
2023/08/30 09:08:41;;;;;;;25.37;19.83;;;;;;;;;;5029208;28;20055;-62
2023/08/30 09:11:06;;;;;;;31.67;21.47;;;;;;;;;;5029187;28;20049;-62
2023/08/30 09:13:32;;;;;;;36.67;21.40;;;;;;;;;;5028545;28;20055;-62
2023/08/30 09:15:59;;;;;;;29.33;20.10;;;;;;;;;;5029432;28;20041;-62
2023/08/30 09:18:28;;;;;;;44.17;22.27;;;;;;;;;;5028724;28;20048;-62
2023/08/30 09:21:05;;;;;;;39.53;21.83;;;;;;;;;;5028857;28;20045;-62
2023/08/30 09:23:33;;;;;;;46.33;24.03;;;;;;;;;;5028567;28;20456;-62
2023/08/30 09:25:59;;;;;;;27.13;19.90;;;;;;;;;;5041340;28;20120;-62
2023/08/30 09:28:25;;;;;;;32.33;20.13;;;;;;;;;;5037834;28;20116;-62
2023/08/30 09:30:51;;;;;;;35.70;19.40;;;;;;;;;;5027687;28;20056;-62
2023/08/30 09:33:24;;;;;;;27.20;18.77;;;;;;;;;;5028705;28;20037;-61
2023/08/30 09:35:50;;;;;;;28.73;17.77;;;;;;;;;;5036786;28;20056;-62
2023/08/30 09:38:17;;;;;;;27.80;16.67;;;;;;;;;;5035803;28;20384;-62
2023/08/30 09:40:44;;;;;;;24.30;15.57;;;;;;;;;;5038922;28;20057;-62
2023/08/30 09:43:10;;;;;;;23.27;14.77;;;;;;;;;;5046341;28;20041;-62
2023/08/30 09:45:36;;;;;;;33.17;17.43;;;;;;;;;;5027678;28;20520;-62
2023/08/30 09:48:02;;;;;;;23.20;14.93;;;;;;;;;;5040080;28;20037;-62
2023/08/30 09:50:29;;;;;;;27.20;17.10;;;;;;;;;;5036483;28;20060;-62
2023/08/30 09:52:55;;;;;;;22.40;14.13;;;;;;;;;;5028723;28;20041;-62
2023/08/30 09:55:22;;;;;;;23.07;14.60;;;;;;;;;;5043215;28;20087;-62
2023/08/30 09:57:49;;;;;;;28.27;17.20;;;;;;;;;;5027972;28;20057;-62
2023/08/30 10:00:15;;;;;;;21.40;14.33;;;;;;;;;;5028334;28;20124;-62
2023/08/30 10:02:44;;;;;;;19.10;13.47;;;;;;;;;;5027832;28;20123;-62
2023/08/30 10:05:12;;;;;;;16.27;12.93;;;;;;;;;;5028278;28;20053;-62
2023/08/30 10:07:39;;;;;;;16.13;12.40;;;;;;;;;;5027706;28;20037;-62
2023/08/30 10:10:05;;;;;;;20.97;13.97;;;;;;;;;;5027017;28;20041;-62
2023/08/30 10:12:34;;;;;;;21.60;13.97;;;;;;;;;;5026615;28;20045;-62
2023/08/30 10:15:00;;;;;;;15.97;11.40;;;;;;;;;;5027750;28;20041;-62
2023/08/30 10:17:28;;;;;;;16.80;12.00;;;;;;;;;;5027241;28;20569;-62
2023/08/30 10:19:54;;;;;;;17.07;11.93;;;;;;;;;;5026462;28;20456;-62
2023/08/30 10:22:23;;;;;;;16.57;11.93;;;;;;;;;;5027253;28;20053;-62
2023/08/30 10:24:55;;;;;;;20.27;12.77;;;;;;;;;;5026014;28;20065;-62
2023/08/30 10:27:22;;;;;;;17.53;12.77;;;;;;;;;;5026486;28;20045;-62
2023/08/30 10:29:49;;;;;;;15.13;11.67;;;;;;;;;;5027034;28;20048;-62
2023/08/30 10:32:20;;;;;;;15.97;12.70;;;;;;;;;;5026979;28;20041;-62
2023/08/30 10:34:48;;;;;;;16.43;12.43;;;;;;;;;;5026596;28;20061;-62
2023/08/30 10:37:14;;;;;;;19.03;14.17;;;;;;;;;;5027732;28;20060;-62
2023/08/30 10:39:41;;;;;;;20.30;14.57;;;;;;;;;;5027061;28;20049;-62
2023/08/30 10:42:10;;;;;;;15.20;12.07;;;;;;;;;;5027400;28;20053;-62
2023/08/30 10:44:47;;;;;;;14.87;11.77;;;;;;;;;;5027738;28;20089;-61
2023/08/30 10:47:18;;;;;;;21.93;14.80;;;;;;;;;;5027444;28;20049;-63
2023/08/30 10:49:44;;;;;;;19.90;13.73;;;;;;;;;;5027564;28;20049;-62
2023/08/30 10:52:12;;;;;;;19.87;13.73;;;;;;;;;;5027029;28;20052;-62
2023/08/30 10:54:38;;;;;;;18.10;12.77;;;;;;;;;;5025871;28;20049;-63
2023/08/30 10:57:04;;;;;;;20.43;14.60;;;;;;;;;;5027939;28;20415;-61
2023/08/30 10:59:30;;;;;;;20.80;14.67;;;;;;;;;;5030439;28;20429;-61
2023/08/30 11:01:56;;;;;;;24.00;15.37;;;;;;;;;;5031166;28;20099;-61
2023/08/30 11:04:23;;;;;;;20.80;14.13;;;;;;;;;;5031355;28;20045;-61
2023/08/30 11:06:50;;;;;;;23.67;15.97;;;;;;;;;;5031465;28;20041;-62
2023/08/30 11:09:19;;;;;;;22.77;16.10;;;;;;;;;;5029366;28;20050;-61
2023/08/30 11:11:46;;;;;;;23.43;15.57;;;;;;;;;;5030670;28;20045;-61
2023/08/30 11:14:12;;;;;;;34.83;19.50;;;;;;;;;;5030566;28;20092;-61
2023/08/30 11:16:39;;;;;;;30.33;18.57;;;;;;;;;;5030409;28;20053;-61
2023/08/30 11:19:05;;;;;;;29.90;19.30;;;;;;;;;;5030858;28;20119;-61
2023/08/30 11:21:32;;;;;;;29.30;18.43;;;;;;;;;;5029874;28;20046;-61
2023/08/30 11:23:58;;;;;;;26.90;17.30;;;;;;;;;;5030883;28;20056;-61
2023/08/30 11:26:25;;;;;;;24.43;16.63;;;;;;;;;;5030852;28;20128;-61
2023/08/30 11:28:52;;;;;;;25.67;16.67;;;;;;;;;;5030972;28;20042;-61
2023/08/30 11:31:28;;;;;;;30.23;17.47;;;;;;;;;;5030999;28;20649;-61
2023/08/30 11:33:55;;;;;;;30.07;18.13;;;;;;;;;;5029894;28;20133;-61
2023/08/30 11:36:22;;;;;;;36.07;20.70;;;;;;;;;;5030801;28;20642;-61
2023/08/30 11:38:48;;;;;;;32.73;18.30;;;;;;;;;;5030541;28;20092;-62
2023/08/30 11:41:14;;;;;;;59.33;25.50;;;;;;;;;;5030875;28;20053;-61
2023/08/30 11:43:40;;;;;;;35.87;20.17;;;;;;;;;;5030679;28;20495;-61
2023/08/30 11:46:06;;;;;;;25.00;17.27;;;;;;;;;;5030406;28;20118;-62
2023/08/30 11:48:32;;;;;;;37.97;21.20;;;;;;;;;;5030680;28;20099;-62
2023/08/30 11:50:59;;;;;;;46.57;23.93;;;;;;;;;;5030518;28;20380;-62
2023/08/30 11:53:25;;;;;;;46.53;23.57;;;;;;;;;;5030481;28;20052;-62
2023/08/30 11:55:52;;;;;;;34.40;20.03;;;;;;;;;;5029977;28;20041;-62
2023/08/30 11:58:21;;;;;;;39.60;20.53;;;;;;;;;;5030832;28;20053;-62
2023/08/30 12:00:50;;;;;;;38.63;20.67;;;;;;;;;;5030240;28;20042;-62
2023/08/30 12:03:16;;;;;;;24.70;17.27;;;;;;;;;;5030331;28;20045;-61
2023/08/30 12:05:49;;;;;;;34.27;19.43;;;;;;;;;;5030460;28;20046;-61
2023/08/30 12:08:15;;;;;;;;;;;;;;;;;;5030886;28;20033;-60
2023/08/30 12:10:41;;;;;;;38.80;20.63;;;;;;;;;;5029772;28;19932;-60
2023/08/30 12:13:07;;;;;;;48.00;22.60;;;;;;;;;;5030252;28;20424;-60
2023/08/30 12:15:34;;;;;;;27.67;16.90;;;;;;;;;;5029962;28;20049;-60
2023/08/30 12:18:06;;;;;;;38.23;19.60;;;;;;;;;;5030224;28;20499;-60
2023/08/30 12:20:32;;;;;;;37.53;21.13;;;;;;;;;;5029659;28;20510;-60
2023/08/30 12:22:58;;;;;;;29.87;17.27;;;;;;;;;;5030006;28;20041;-61
2023/08/30 12:25:25;;;;;;;25.20;15.70;;;;;;;;;;5029976;28;20049;-61
2023/08/30 12:27:51;;;;;;;31.33;16.83;;;;;;;;;;5029846;28;20507;-61
2023/08/30 12:30:17;;;;;;;44.50;20.30;;;;;;;;;;5029545;28;20060;-61
2023/08/30 12:32:44;;;;;;;31.30;17.17;;;;;;;;;;5029799;28;20045;-60
2023/08/30 12:35:10;;;;;;;31.67;17.30;;;;;;;;;;5029730;28;20046;-61
2023/08/30 12:37:36;;;;;;;36.80;17.03;;;;;;;;;;5029847;28;20414;-60
2023/08/30 12:40:03;;;;;;;18.00;12.00;;;;;;;;;;5029280;28;20057;-61
2023/08/30 12:42:29;;;;;;;25.90;14.87;;;;;;;;;;5029497;28;20092;-61
2023/08/30 12:44:55;;;;;;;22.00;14.27;;;;;;;;;;5029210;28;20189;-61
2023/08/30 12:47:21;;;;;;;16.37;10.23;;;;;;;;;;5029533;28;20073;-61
2023/08/30 12:49:47;;;;;;;15.23;10.43;;;;;;;;;;5029098;28;20052;-61
2023/08/30 12:52:13;;;;;;;13.90;10.33;;;;;;;;;;5029490;28;20041;-60
2023/08/30 12:54:39;;;;;;;17.33;12.97;;;;;;;;;;5029089;28;20386;-61
2023/08/30 12:57:05;;;;;;;20.03;13.57;;;;;;;;;;5029220;28;20199;-60
2023/08/30 12:59:31;;;;;;;16.90;11.97;;;;;;;;;;5029210;28;20132;-60
2023/08/30 13:01:57;;;;;;;20.13;11.50;;;;;;;;;;5029347;28;20091;-60
2023/08/30 13:04:23;;;;;;;21.43;13.83;;;;;;;;;;5028714;28;20049;-61
2023/08/30 13:06:50;;;;;;;22.97;14.00;;;;;;;;;;5029389;28;20048;-62
2023/08/30 13:09:16;;;;;;;28.73;16.43;;;;;;;;;;5029049;28;20037;-62
2023/08/30 13:11:42;;;;;;;21.40;14.30;;;;;;;;;;5029081;28;20103;-61
2023/08/30 13:14:08;;;;;;;17.20;13.07;;;;;;;;;;5029241;28;20084;-62
2023/08/30 13:16:35;;;;;;;113.30;30.17;;;;;;;;;;5029016;28;20045;-62
2023/08/30 13:19:01;;;;;;;21.50;14.27;;;;;;;;;;5028224;28;20046;-62
2023/08/30 13:21:27;;;;;;;15.63;12.07;;;;;;;;;;5028253;28;20099;-62
2023/08/30 13:23:53;;;;;;;14.40;11.27;;;;;;;;;;5028702;28;20084;-61
2023/08/30 13:26:19;;;;;;;29.50;13.53;;;;;;;;;;5028722;28;20045;-61
2023/08/30 13:28:45;;;;;;;180.80;30.80;;;;;;;;;;5028323;28;20495;-62
2023/08/30 13:31:11;;;;;;;201.93;27.10;;;;;;;;;;5028438;28;20050;-62
2023/08/30 13:33:37;;;;;;;49.23;11.47;;;;;;;;;;5028548;28;20094;-62
2023/08/30 13:36:03;;;;;;;193.67;25.37;;;;;;;;;;5027984;28;20077;-62
2023/08/30 13:38:29;;;;;;;8.57;7.10;;;;;;;;;;5028519;28;20092;-63
2023/08/30 13:40:59;;;;;;;7.47;6.67;;;;;;;;;;5028301;28;20042;-62
2023/08/30 13:43:25;;;;;;;7.57;6.87;;;;;;;;;;5028251;28;20049;-62
2023/08/30 13:45:57;;;;;;;7.03;6.33;;;;;;;;;;5028157;28;20038;-62
2023/08/30 13:48:23;;;;;;;7.53;6.80;;;;;;;;;;5028123;28;20076;-62
2023/08/30 13:50:50;;;;;;;8.73;6.30;;;;;;;;;;5027917;28;20073;-62
2023/08/30 13:53:16;;;;;;;5.10;4.60;;;;;;;;;;5028458;28;20084;-62
2023/08/30 13:55:48;;;;;;;4.30;3.80;;;;;;;;;;5028240;28;20131;-62
2023/08/30 13:58:14;;;;;;;4.30;3.87;;;;;;;;;;5028172;28;20057;-62
2023/08/30 14:00:40;;;;;;;2.53;2.10;;;;;;;;;;5028002;28;20530;-62
2023/08/30 14:03:07;;;;;;;2.40;1.93;;;;;;;;;;5027035;28;20046;-62
2023/08/30 14:05:33;;;;;;;3.53;1.93;;;;;;;;;;5027904;28;20049;-62
2023/08/30 14:07:59;;;;;;;2.97;1.60;;;;;;;;;;5028014;28;20476;-62
2023/08/30 14:10:25;;;;;;;2.33;1.20;;;;;;;;;;5027851;28;20049;-61
2023/08/30 14:12:51;;;;;;;2.20;1.27;;;;;;;;;;5027901;28;20073;-62
2023/08/30 14:15:17;;;;;;;2.07;1.50;;;;;;;;;;5027971;28;20049;-61